createdAt,value
2022-11-22T00:00:00.000Z,6.98
2022-11-22T00:15:00.000Z,4.79
2022-11-22T00:30:00.000Z,4.04
2022-11-22T00:45:00.000Z,4.07
2022-11-22T01:00:00.000Z,4.19
2022-11-22T01:15:00.000Z,4.19
2022-11-22T01:30:00.000Z,3.95
2022-11-22T01:45:00.000Z,3.96
2022-11-22T02:00:00.000Z,2.98
2022-11-22T02:15:00.000Z,4.27
2022-11-22T02:30:00.000Z,5.02
2022-11-22T02:45:00.000Z,4.53
2022-11-22T03:15:00.000Z,5
2022-11-22T03:15:00.000Z,4.94
2022-11-22T03:30:00.000Z,5.18
2022-11-22T03:45:00.000Z,8.36
2022-11-22T04:00:00.000Z,5.86
2022-11-22T04:15:00.000Z,5.34
2022-11-22T04:30:00.000Z,6.78
2022-11-22T04:45:00.000Z,7.93
2022-11-22T05:00:00.000Z,8.62
2022-11-22T05:15:00.000Z,9.55
2022-11-22T05:30:00.000Z,9.61
2022-11-22T05:45:00.000Z,9.88
2022-11-22T06:00:00.000Z,10.52
2022-11-22T06:15:00.000Z,20.41
2022-11-22T06:30:00.000Z,16.08
2022-11-22T06:45:00.000Z,14.76
2022-11-22T07:00:00.000Z,16.71
2022-11-22T07:15:00.000Z,12.46
2022-11-22T07:30:00.000Z,13.61
2022-11-22T07:45:00.000Z,11.56
2022-11-22T08:00:00.000Z,10.42
2022-11-22T08:15:00.000Z,10.86
2022-11-22T08:30:00.000Z,11.47
2022-11-22T08:45:00.000Z,10.58
2022-11-22T09:00:00.000Z,11.78
2022-11-22T09:15:00.000Z,14.38
2022-11-22T09:30:00.000Z,10.24
2022-11-22T09:45:00.000Z,8.99
2022-11-22T10:00:00.000Z,14.74
2022-11-22T10:15:00.000Z,14.19
2022-11-22T10:30:00.000Z,14.73
2022-11-22T10:45:00.000Z,11.81
2022-11-22T11:00:00.000Z,12.74
2022-11-22T11:15:00.000Z,17.47
2022-11-22T11:30:00.000Z,19.95
2022-11-22T11:45:00.000Z,13.46
2022-11-22T12:15:00.000Z,7
2022-11-22T12:15:00.000Z,8.13
2022-11-22T12:30:00.000Z,6.64
2022-11-22T12:45:00.000Z,4.51
2022-11-22T13:00:00.000Z,3.32
2022-11-22T13:15:00.000Z,5.98
2022-11-22T13:45:00.000Z,4
2022-11-22T13:45:00.000Z,5.2
2022-11-22T14:00:00.000Z,6.4
2022-11-22T14:15:00.000Z,6.4
2022-11-22T14:30:00.000Z,5.84
2022-11-22T14:45:00.000Z,21.56
2022-11-22T15:45:00.000Z,15.41
2022-11-22T16:00:00.000Z,7.52
2022-11-22T16:15:00.000Z,8.24
2022-11-22T16:30:00.000Z,8.87
2022-11-22T16:45:00.000Z,8.99
2022-11-22T17:00:00.000Z,13.24
2022-11-22T17:15:00.000Z,10.56
2022-11-22T17:30:00.000Z,11.22
2022-11-22T17:45:00.000Z,7.39
2022-11-22T18:00:00.000Z,11.93
2022-11-22T18:15:00.000Z,11.54
2022-11-22T18:30:00.000Z,11.06
2022-11-22T18:45:00.000Z,7.99
2022-11-22T19:00:00.000Z,7.64
2022-11-22T19:15:00.000Z,9.85
2022-11-22T19:30:00.000Z,10.18
2022-11-22T19:45:00.000Z,9.64
2022-11-22T20:00:00.000Z,9.79
2022-11-22T20:15:00.000Z,8.14
2022-11-22T20:30:00.000Z,7.14
2022-11-22T20:45:00.000Z,7.34
2022-11-22T21:00:00.000Z,8.79
2022-11-22T21:15:00.000Z,9.39
2022-11-22T21:30:00.000Z,7.55
2022-11-22T21:45:00.000Z,6.99
2022-11-22T22:00:00.000Z,6.99
2022-11-22T22:15:00.000Z,6.13
2022-11-22T22:30:00.000Z,5.01
2022-11-22T22:45:00.000Z,4.6
2022-11-22T23:00:00.000Z,4.39
2022-11-22T23:15:00.000Z,4.4
2022-11-22T23:30:00.000Z,4.54
2022-11-22T23:45:00.000Z,4.15
